createdAt,value
2022-12-31T00:01:44.265Z,100124.72
2022-12-31T00:06:46.161Z,100135.72
2022-12-31T00:11:47.799Z,100179.28
2022-12-31T00:16:49.404Z,100182.34
2022-12-31T00:21:51.014Z,100155.13
2022-12-31T00:26:52.924Z,100164.41
2022-12-31T00:31:54.487Z,100121.81
2022-12-31T00:36:56.095Z,100069.84
2022-12-31T00:42:00.034Z,100073.06
2022-12-31T00:47:01.600Z,100072.84
2022-12-31T00:52:03.273Z,100066.41
2022-12-31T00:57:04.865Z,100068.97
2022-12-31T01:02:06.627Z,100159.38
2022-12-31T01:07:08.572Z,100206.22
2022-12-31T01:12:10.173Z,100144.88
2022-12-31T01:17:13.407Z,100101.09
2022-12-31T01:22:15.068Z,100116.06
2022-12-31T01:27:16.626Z,100142.13
2022-12-31T01:32:18.197Z,100193.34
2022-12-31T01:37:19.766Z,100235.72
2022-12-31T01:42:21.313Z,100243.47
2022-12-31T01:47:35.620Z,100259.31
2022-12-31T01:52:45.232Z,100314.31
2022-12-31T01:57:51.331Z,100318.72
2022-12-31T02:02:56.102Z,100345.16
2022-12-31T02:07:59.952Z,100361.78
2022-12-31T02:13:02.298Z,100400.84
2022-12-31T02:18:24.401Z,100410.84
2022-12-31T02:23:47.522Z,100413.78
2022-12-31T02:29:33.898Z,100443.00
2022-12-31T02:34:45.987Z,100451.41
2022-12-31T02:39:48.287Z,100479.59
2022-12-31T02:44:49.973Z,100461.47
2022-12-31T02:49:59.701Z,100499.38
2022-12-31T02:55:14.610Z,100529.34
2022-12-31T03:00:35.923Z,100490.59
2022-12-31T03:05:43.712Z,100502.19
2022-12-31T03:10:45.272Z,100506.75
2022-12-31T03:15:46.860Z,100525.13
2022-12-31T03:21:09.450Z,100553.75
2022-12-31T03:26:12.435Z,100581.81
2022-12-31T03:31:14.208Z,100597.06
2022-12-31T03:36:15.816Z,100568.75
2022-12-31T03:41:17.390Z,100544.97
2022-12-31T03:46:19.016Z,100527.25
2022-12-31T03:51:20.630Z,100523.66
2022-12-31T03:56:22.175Z,100496.41
2022-12-31T04:01:24.570Z,100496.44
2022-12-31T04:06:26.404Z,100494.72
2022-12-31T04:11:27.990Z,100460.00
2022-12-31T04:16:29.648Z,100450.69
2022-12-31T04:21:34.943Z,100440.22
2022-12-31T04:26:37.194Z,100448.50
2022-12-31T04:31:38.796Z,100482.22
2022-12-31T04:36:40.441Z,100492.03
2022-12-31T04:41:42.016Z,100473.19
2022-12-31T04:46:44.257Z,100489.66
2022-12-31T04:51:45.838Z,100481.69
2022-12-31T04:56:47.407Z,100475.41
2022-12-31T05:01:49.088Z,100465.53
2022-12-31T05:06:50.775Z,100463.78
2022-12-31T05:11:52.346Z,100461.34
2022-12-31T05:16:54.039Z,100432.97
2022-12-31T05:22:14.212Z,100449.84
2022-12-31T05:27:15.784Z,100472.16
2022-12-31T05:32:17.397Z,100470.75
2022-12-31T05:37:18.957Z,100474.31
2022-12-31T05:42:20.905Z,100489.84
2022-12-31T05:47:22.589Z,100497.59
2022-12-31T05:52:24.207Z,100532.28
2022-12-31T05:57:26.846Z,100537.66
2022-12-31T06:02:28.448Z,100517.59
2022-12-31T06:07:30.405Z,100487.69
2022-12-31T06:12:32.400Z,100462.53
2022-12-31T06:17:34.023Z,100472.91
2022-12-31T06:22:35.636Z,100453.72
2022-12-31T06:27:37.274Z,100460.84
2022-12-31T06:32:40.702Z,100450.81
2022-12-31T06:37:42.308Z,100435.47
2022-12-31T06:42:43.890Z,100424.09
2022-12-31T06:47:45.468Z,100399.88
2022-12-31T06:52:47.034Z,100395.53
2022-12-31T06:57:48.870Z,100391.31
2022-12-31T07:03:01.606Z,100425.91
2022-12-31T07:08:27.685Z,100441.25
2022-12-31T07:13:44.184Z,100453.72
2022-12-31T07:19:09.951Z,100468.34
2022-12-31T07:24:12.496Z,100465.81
2022-12-31T07:29:20.032Z,100483.38
2022-12-31T07:34:43.173Z,100522.47
2022-12-31T07:39:50.665Z,100557.41
2022-12-31T07:44:58.523Z,100564.72
2022-12-31T07:50:00.646Z,100599.44
2022-12-31T07:55:02.261Z,100656.28
2022-12-31T08:00:11.681Z,100660.81
2022-12-31T08:05:40.651Z,100668.63
2022-12-31T08:11:01.064Z,100707.94
2022-12-31T08:16:11.259Z,100725.69
2022-12-31T08:21:36.985Z,100723.06
2022-12-31T08:26:53.306Z,100718.25
2022-12-31T08:32:21.798Z,100735.28
2022-12-31T08:37:36.745Z,100719.19
2022-12-31T08:42:43.019Z,100621.94
2022-12-31T08:47:59.672Z,100578.78
2022-12-31T08:53:02.001Z,100558.09
2022-12-31T08:58:30.783Z,100543.47
2022-12-31T09:03:50.843Z,100525.59
2022-12-31T09:09:21.909Z,100529.56
2022-12-31T09:14:41.835Z,100519.06
2022-12-31T09:19:43.415Z,100493.88
2022-12-31T09:24:45.228Z,100464.00
2022-12-31T09:30:07.321Z,100439.16
2022-12-31T09:35:33.485Z,100448.44
2022-12-31T09:41:09.112Z,100432.19
2022-12-31T09:46:43.823Z,100442.16
2022-12-31T09:51:54.996Z,100426.13
2022-12-31T09:57:03.009Z,100405.41
2022-12-31T10:02:47.453Z,100367.53
2022-12-31T10:07:59.917Z,100354.28
2022-12-31T10:13:20.252Z,100313.28
2022-12-31T10:18:49.289Z,100293.66
2022-12-31T10:23:52.385Z,100252.38
2022-12-31T10:29:09.179Z,100235.19
2022-12-31T10:34:33.442Z,100178.69
2022-12-31T10:40:00.691Z,100199.19
2022-12-31T10:45:17.972Z,100173.97
2022-12-31T10:50:47.334Z,100167.03
2022-12-31T10:56:26.229Z,100131.84
2022-12-31T11:01:33.006Z,100149.56
2022-12-31T11:07:10.376Z,100127.34
2022-12-31T11:12:23.885Z,100120.41
2022-12-31T11:17:50.055Z,100105.13
2022-12-31T11:23:10.331Z,100092.91
2022-12-31T11:28:24.570Z,100084.56
2022-12-31T11:33:50.965Z,100051.56
2022-12-31T11:39:27.368Z,100019.94
2022-12-31T11:44:59.905Z,100009.41
2022-12-31T11:50:25.322Z,99987.19
2022-12-31T11:56:06.888Z,99963.53
2022-12-31T12:01:17.223Z,99956.84
2022-12-31T12:06:25.512Z,99961.75
2022-12-31T12:11:33.084Z,99921.69
2022-12-31T12:16:34.689Z,99908.66
2022-12-31T12:21:46.162Z,99903.75
2022-12-31T12:26:48.522Z,99911.31
2022-12-31T12:32:04.121Z,99909.38
2022-12-31T12:37:22.528Z,99901.41
2022-12-31T12:42:24.119Z,99913.94
2022-12-31T12:47:26.199Z,99919.47
2022-12-31T12:52:37.654Z,99918.34
2022-12-31T12:58:00.983Z,99892.84
2022-12-31T13:03:17.831Z,99872.66
2022-12-31T13:08:41.266Z,99872.13
2022-12-31T13:14:14.006Z,99862.34
2022-12-31T13:19:42.003Z,99881.28
2022-12-31T13:24:49.264Z,99886.88
2022-12-31T13:29:53.446Z,99872.81
2022-12-31T13:35:00.227Z,99878.72
2022-12-31T13:40:07.454Z,99875.16
2022-12-31T13:45:20.824Z,99876.53
2022-12-31T13:50:29.617Z,99873.84
2022-12-31T13:55:42.241Z,99872.50
2022-12-31T14:00:50.111Z,99872.25
2022-12-31T14:06:28.812Z,99871.72
2022-12-31T14:11:51.861Z,99872.63
2022-12-31T14:17:17.619Z,99879.03
2022-12-31T14:22:28.635Z,99885.72
2022-12-31T14:27:35.223Z,99873.34
2022-12-31T14:33:09.465Z,99875.06
2022-12-31T14:38:39.733Z,99895.00
2022-12-31T14:44:26.549Z,99884.53
2022-12-31T14:49:43.343Z,99888.16
2022-12-31T14:54:44.910Z,99894.03
2022-12-31T14:59:56.950Z,99894.06
2022-12-31T15:05:26.836Z,99886.66
2022-12-31T15:10:46.048Z,99888.31
2022-12-31T15:15:59.486Z,99891.63
2022-12-31T15:21:32.060Z,99894.09
2022-12-31T15:26:34.807Z,99910.94
2022-12-31T15:31:45.019Z,99919.78
2022-12-31T15:36:56.705Z,99923.06
2022-12-31T15:47:32.589Z,99943.38
2022-12-31T15:52:42.175Z,99948.25
2022-12-31T15:57:44.000Z,99956.28
2022-12-31T16:02:48.279Z,99976.38
2022-12-31T16:07:54.120Z,99981.00
2022-12-31T16:12:57.883Z,100000.78
2022-12-31T16:18:05.526Z,100009.34
2022-12-31T16:23:21.062Z,100024.22
2022-12-31T16:28:28.207Z,100045.66
2022-12-31T16:33:31.002Z,100049.97
2022-12-31T16:38:37.640Z,100055.97
2022-12-31T16:43:41.728Z,100065.56
2022-12-31T16:49:15.847Z,100075.69
2022-12-31T16:54:30.964Z,100083.41
2022-12-31T16:59:45.244Z,100089.78
2022-12-31T17:04:56.003Z,100087.34
2022-12-31T17:10:15.903Z,100083.22
2022-12-31T17:15:27.047Z,100081.94
2022-12-31T17:20:31.227Z,100087.25
2022-12-31T17:25:36.028Z,100076.56
2022-12-31T17:30:40.372Z,100073.22
2022-12-31T17:35:44.452Z,100076.47
2022-12-31T17:40:51.342Z,100075.53
2022-12-31T17:45:54.754Z,100088.81
2022-12-31T17:50:58.913Z,100092.13
2022-12-31T17:56:06.380Z,100093.53
2022-12-31T18:01:09.993Z,100108.94
2022-12-31T18:06:16.665Z,100120.81
2022-12-31T18:11:24.019Z,100136.03
2022-12-31T18:16:25.767Z,100138.03
2022-12-31T18:21:32.531Z,100144.41
2022-12-31T18:26:34.751Z,100157.38
2022-12-31T18:31:36.873Z,100172.41
2022-12-31T18:36:38.441Z,100175.50
2022-12-31T18:41:45.743Z,100194.28
2022-12-31T18:46:47.464Z,100191.56
2022-12-31T18:51:54.222Z,100199.13
2022-12-31T18:56:57.259Z,100194.59
2022-12-31T19:01:59.090Z,100185.16
2022-12-31T19:07:00.744Z,100184.44
2022-12-31T19:12:02.392Z,100182.97
2022-12-31T19:22:04.396Z,100191.34
2022-12-31T19:27:05.935Z,100188.38
2022-12-31T19:32:07.602Z,100170.13
2022-12-31T19:37:15.387Z,100138.75
2022-12-31T19:42:17.003Z,100126.50
2022-12-31T19:47:18.628Z,100112.56
2022-12-31T19:52:20.240Z,100108.56
2022-12-31T19:57:21.875Z,100090.41
2022-12-31T20:02:23.538Z,100083.75
2022-12-31T20:07:27.204Z,100080.22
2022-12-31T20:12:29.624Z,100074.19
2022-12-31T20:17:31.399Z,100084.97
2022-12-31T20:22:33.079Z,100101.16
2022-12-31T20:27:36.087Z,100117.09
2022-12-31T20:32:37.651Z,100121.38
2022-12-31T20:37:39.471Z,100124.56
2022-12-31T20:42:41.799Z,100126.03
2022-12-31T20:47:43.428Z,100120.09
2022-12-31T20:52:45.020Z,100129.66
2022-12-31T20:57:46.666Z,100125.19
2022-12-31T21:02:57.591Z,100129.47
2022-12-31T21:08:05.591Z,100126.63
2022-12-31T21:13:07.239Z,100128.88
2022-12-31T21:18:08.863Z,100119.91
2022-12-31T21:23:10.381Z,100121.38
2022-12-31T21:28:12.670Z,100128.59
2022-12-31T21:33:14.262Z,100134.09
2022-12-31T21:38:16.570Z,100139.41
2022-12-31T21:43:18.327Z,100138.81
2022-12-31T21:48:19.953Z,100140.53
2022-12-31T21:53:27.903Z,100141.13
2022-12-31T21:58:34.529Z,100140.22
2022-12-31T22:03:36.723Z,100161.44
2022-12-31T22:08:44.545Z,100156.50
2022-12-31T22:13:47.166Z,100168.03
2022-12-31T22:18:49.505Z,100170.09
2022-12-31T22:23:54.783Z,100170.69
2022-12-31T22:28:59.412Z,100182.28
2022-12-31T22:34:02.004Z,100186.94
2022-12-31T22:39:03.820Z,100200.38
2022-12-31T22:44:05.489Z,100209.53
2022-12-31T22:49:07.055Z,100227.47
2022-12-31T22:54:10.396Z,100234.88
2022-12-31T22:59:11.929Z,100223.63
2022-12-31T23:04:13.557Z,100231.97
2022-12-31T23:09:35.442Z,100251.91
2022-12-31T23:14:55.677Z,100244.81
2022-12-31T23:20:15.877Z,100243.13
2022-12-31T23:25:17.832Z,100244.97
2022-12-31T23:30:19.470Z,100240.38
2022-12-31T23:35:21.098Z,100240.06
2022-12-31T23:40:22.847Z,100248.91
2022-12-31T23:45:29.590Z,100249.75
2022-12-31T23:50:34.176Z,100251.38
2022-12-31T23:55:35.792Z,100241.97
